.
WxDataArchive / Data Records for 2010-11-23
2010-11-22 November 2010 2010-11-24

Data Records for Tuesday, 23 November 2010

Time	Temp	Chill	HIndex	Humid	Dewpt	 Wind 	HiWind	WindDir	Rain 	Barom 
-----	----	-----	------	-----	-----	------	------	-------	-----	----- 
00:00	59.2	59.2	59.2	92	56.9	2	7	248	0.00	29.724 
00:05	59.0	59.0	59.0	92	56.7	2	5	225	0.02	29.724 
00:10	59.0	59.0	59.0	92	56.7	2	5	248	0.01	29.724 
00:15	58.9	58.9	58.9	92	56.6	2	7	248	0.01	29.732 
00:20	58.9	58.9	58.9	93	56.9	1	3	248	0.00	29.732 
00:25	58.7	58.7	58.7	93	56.7	1	2	248	0.01	29.732 
00:30	58.7	58.7	58.7	93	56.7	1	4	248	0.01	29.722 
00:35	58.9	58.9	58.9	93	56.9	2	7	248	0.01	29.722 
00:40	58.9	58.9	58.9	93	56.9	3	11	248	0.01	29.722 
00:45	58.9	58.9	58.9	93	56.9	2	5	248	0.01	29.744 
00:50	58.7	58.7	58.7	94	57.0	4	10	248	0.01	29.744 
00:55	58.6	58.6	58.6	94	56.9	3	10	248	0.02	29.744 
01:00	58.4	58.4	58.4	94	56.7	3	10	248	0.02	29.751 
01:05	58.3	58.3	58.3	94	56.6	3	9	248	0.01	29.751 
01:10	57.8	57.8	57.8	94	56.1	3	9	248	0.01	29.751 
01:15	57.6	57.6	57.6	94	55.9	2	6	248	0.00	29.738 
01:20	57.5	57.5	57.5	94	55.8	3	7	248	0.00	29.738 
01:25	57.5	57.5	57.5	94	55.8	2	4	248	0.00	29.738 
01:30	57.3	57.3	57.3	94	55.6	2	6	248	0.00	29.752 
01:35	57.3	57.3	57.3	94	55.6	2	7	248	0.00	29.752 
01:40	57.3	57.3	57.3	94	55.6	2	5	248	0.00	29.752 
01:45	57.5	57.5	57.5	95	56.1	2	6	225	0.00	29.770 
01:50	57.5	57.5	57.5	95	56.1	3	6	248	0.00	29.770 
01:55	57.5	57.5	57.5	95	56.1	3	7	248	0.00	29.770 
02:00	57.6	57.6	57.6	95	56.2	2	7	225	0.00	29.782 
02:05	57.8	57.8	57.8	95	56.4	4	10	248	0.00	29.782 
02:10	57.8	57.8	57.8	95	56.4	3	6	270	0.00	29.782 
02:15	57.8	57.8	57.8	95	56.4	1	4	248	0.00	29.768 
02:20	57.6	57.6	57.6	95	56.2	2	6	248	0.00	29.768 
02:25	57.5	57.5	57.5	95	56.1	3	5	270	0.00	29.768 
02:30	56.2	56.2	56.2	93	54.2	4	9	270	0.00	29.784 
02:35	55.1	55.1	55.1	90	52.2	4	9	270	0.00	29.784 
02:40	54.7	54.7	54.7	87	50.9	3	7	270	0.00	29.784 
02:45	54.5	54.5	54.5	85	50.1	3	5	248	0.00	29.798 
02:50	54.2	54.2	54.2	84	49.5	3	6	248	0.00	29.798 
02:55	54.1	54.1	54.1	84	49.4	2	7	248	0.00	29.798 
03:00	54.1	54.1	54.1	84	49.4	3	5	248	0.00	29.820 
03:05	53.9	53.9	53.9	84	49.2	2	9	248	0.00	29.820 
03:10	53.6	53.6	53.6	84	48.9	3	7	270	0.00	29.820 
03:15	52.6	52.6	52.6	84	47.9	4	9	292	0.01	29.836 
03:20	51.7	51.7	51.7	84	47.0	3	5	292	0.00	29.836 
03:25	51.0	51.0	51.0	84	46.3	4	7	270	0.00	29.836 
03:30	50.1	50.1	50.1	82	44.8	4	10	270	0.00	29.871 
03:35	49.5	48.3	49.5	82	44.2	4	9	270	0.00	29.871 
03:40	49.1	47.2	49.1	81	43.5	5	9	270	0.00	29.871 
03:45	48.5	47.1	48.5	81	42.9	4	9	270	0.00	29.868 
03:50	48.2	48.2	48.2	81	42.6	3	8	270	0.00	29.868 
03:55	47.9	47.9	47.9	81	42.4	2	5	270	0.00	29.868 
04:00	47.6	47.6	47.6	82	42.4	3	6	270	0.00	29.884 
04:05	47.3	47.3	47.3	82	42.1	2	6	315	0.00	29.884 
04:10	47.0	47.0	47.0	82	41.8	3	5	270	0.00	29.884 
04:15	46.7	45.1	46.7	82	41.5	4	11	315	0.00	29.888 
04:20	46.1	44.4	46.1	81	40.6	4	10	270	0.00	29.888 
04:25	45.7	43.9	45.7	80	39.9	4	7	315	0.00	29.888 
04:30	45.2	43.3	45.2	80	39.4	4	11	270	0.00	29.897 
04:35	44.8	44.8	44.8	80	39.0	3	7	270	0.00	29.897 
04:40	44.5	44.5	44.5	81	39.0	2	5	270	0.00	29.897 
04:45	44.2	44.2	44.2	81	38.7	3	5	270	0.00	29.905 
04:50	43.9	43.9	43.9	81	38.5	3	5	270	0.00	29.905 
04:55	43.6	43.6	43.6	81	38.2	3	6	270	0.00	29.905 
05:00	43.5	43.5	43.5	81	38.1	2	6	270	0.00	29.910 
05:05	43.2	43.2	43.2	81	37.8	3	5	270	0.00	29.910 
05:10	43.1	43.1	43.1	81	37.7	3	5	270	0.00	29.910 
05:15	42.9	42.9	42.9	81	37.5	3	5	270	0.00	29.912 
05:20	42.8	42.8	42.8	81	37.4	2	5	270	0.00	29.912 
05:25	42.6	42.6	42.6	82	37.5	2	4	270	0.00	29.912 
05:30	42.5	42.5	42.5	82	37.4	3	6	270	0.00	29.929 
05:35	42.5	42.5	42.5	81	37.1	3	6	270	0.00	29.929 
05:40	42.3	42.3	42.3	81	36.9	3	5	270	0.00	29.929 
05:45	42.2	42.2	42.2	81	36.8	3	5	270	0.00	29.938 
05:50	42.3	42.3	42.3	81	36.9	2	5	270	0.00	29.938 
05:55	42.3	42.3	42.3	81	36.9	2	4	248	0.00	29.938 
06:00	42.3	42.3	42.3	82	37.2	2	5	248	0.00	29.938 
06:05	41.9	41.9	41.9	81	36.5	3	10	248	0.00	29.938 
06:10	41.5	41.5	41.5	80	35.8	3	7	270	0.00	29.938 
06:15	41.2	38.7	41.2	78	34.9	4	7	270	0.00	29.952 
06:20	40.9	40.9	40.9	78	34.6	3	5	270	0.00	29.952 
06:25	40.8	40.8	40.8	79	34.8	3	5	248	0.00	29.952 
06:30	40.6	40.6	40.6	80	34.9	2	6	270	0.00	29.956 
06:35	40.5	40.5	40.5	81	35.1	1	3	270	0.00	29.956 
06:40	40.5	40.5	40.5	83	35.8	2	6	270	0.00	29.956 
06:45	40.3	40.3	40.3	83	35.6	2	5	248	0.00	29.972 
06:50	40.2	40.2	40.2	83	35.5	3	7	270	0.00	29.972 
06:55	39.9	39.9	39.9	83	35.2	2	4	248	0.00	29.972 
07:00	39.9	39.9	39.9	83	35.2	2	5	248	0.00	29.978 
07:05	39.8	39.8	39.8	83	35.1	3	5	270	0.00	29.978 
07:10	39.6	39.6	39.6	82	34.6	3	7	270	0.00	29.978 
07:15	39.3	36.5	39.3	81	34.0	4	8	270	0.00	29.984 
07:20	39.2	35.5	39.2	79	33.2	5	10	270	0.00	29.984 
07:25	38.9	36.0	38.9	78	32.6	4	7	270	0.00	29.984 
07:30	38.6	35.7	38.6	78	32.3	4	7	270	0.00	29.988 
07:35	38.3	38.3	38.3	78	32.1	3	6	270	0.00	29.988 
07:40	38.2	38.2	38.2	78	32.0	3	6	270	0.00	29.988 
07:45	38.0	38.0	38.0	79	32.1	2	4	270	0.00	29.989 
07:50	38.0	38.0	38.0	81	32.7	2	5	248	0.00	29.989 
07:55	37.8	37.8	37.8	81	32.5	3	5	270	0.00	29.989 
08:00	37.6	37.6	37.6	81	32.3	1	3	270	0.00	29.996 
08:05	37.5	37.5	37.5	81	32.2	2	6	270	0.00	29.996 
08:10	37.6	37.6	37.6	82	32.6	2	5	270	0.00	29.996 
08:15	37.6	37.6	37.6	82	32.6	2	5	270	0.00	30.004 
08:20	37.5	37.5	37.5	82	32.5	3	5	270	0.00	30.004 
08:25	37.3	37.3	37.3	82	32.3	2	6	248	0.00	30.004 
08:30	37.3	37.3	37.3	82	32.3	3	7	270	0.00	30.021 
08:35	37.3	37.3	37.3	81	32.0	3	9	270	0.00	30.021 
08:40	37.2	37.2	37.2	81	31.9	3	7	270	0.00	30.021 
08:45	36.9	36.9	36.9	80	31.3	3	9	270	0.00	30.033 
08:50	36.8	36.8	36.8	79	30.9	3	6	270	0.00	30.033 
08:55	36.5	36.5	36.5	79	30.6	3	6	270	0.00	30.033 
09:00	36.2	32.9	36.2	78	30.0	4	13	270	0.00	30.037 
09:05	36.0	32.7	36.0	77	29.5	4	8	270	0.00	30.037 
09:10	35.9	32.6	35.9	77	29.4	4	9	270	0.00	30.037 
09:15	36.0	36.0	36.0	77	29.5	3	6	270	0.00	30.041 
09:20	36.5	33.3	36.5	77	30.0	4	7	270	0.00	30.041 
09:25	35.9	31.7	35.9	74	28.4	5	10	270	0.00	30.041 
09:30	35.6	32.2	35.6	74	28.1	4	10	270	0.00	30.054 
09:35	35.6	32.2	35.6	75	28.5	4	8	270	0.00	30.054 
09:40	36.0	36.0	36.0	75	28.9	3	6	270	0.00	30.054 
09:45	36.2	32.0	36.2	74	28.7	5	7	270	0.00	30.061 
09:50	36.0	32.7	36.0	74	28.5	4	6	270	0.00	30.061 
09:55	36.3	33.0	36.3	74	28.8	4	7	270	0.00	30.061 
10:00	36.2	32.9	36.2	73	28.4	4	7	270	0.00	30.069 
10:05	36.0	32.7	36.0	72	27.9	4	7	292	0.00	30.069 
10:10	36.0	32.7	36.0	72	27.9	4	7	270	0.00	30.069 
10:15	36.2	32.9	36.2	73	28.4	4	7	270	0.00	30.079 
10:20	36.5	36.5	36.5	72	28.3	3	5	270	0.00	30.079 
10:25	36.5	36.5	36.5	69	27.3	2	6	315	0.00	30.079 
10:30	36.6	36.6	36.6	69	27.4	2	4	315	0.00	30.086 
10:35	36.8	36.8	36.8	70	27.9	2	5	270	0.00	30.086 
10:40	36.8	33.6	36.8	68	27.2	4	7	270	0.00	30.086 
10:45	36.6	33.4	36.6	68	27.1	4	7	270	0.00	30.096 
10:50	36.6	36.6	36.6	68	27.1	3	5	270	0.00	30.096 
10:55	36.8	36.8	36.8	68	27.2	3	8	270	0.00	30.096 
11:00	36.8	33.6	36.8	67	26.9	4	7	270	0.00	30.103 
11:05	36.5	33.3	36.5	66	26.2	4	7	270	0.00	30.103 
11:10	36.5	33.3	36.5	66	26.2	4	7	270	0.00	30.103 
11:15	36.6	36.6	36.6	67	26.7	2	5	270	0.00	30.105 
11:20	36.8	33.6	36.8	67	26.9	4	7	270	0.00	30.105 
11:25	36.9	33.7	36.9	66	26.6	4	6	270	0.00	30.105 
11:30	37.0	33.9	37.0	66	26.7	4	9	270	0.00	30.107 
11:35	37.2	37.2	37.2	65	26.5	3	6	270	0.00	30.107 
11:40	37.2	34.1	37.2	64	26.2	4	7	270	0.00	30.107 
11:45	37.3	37.3	37.3	65	26.6	3	6	270	0.00	30.117 
11:50	37.5	34.4	37.5	65	26.8	4	9	270	0.00	30.117 
11:55	37.3	34.2	37.3	63	25.9	4	11	270	0.00	30.117 
12:00	37.5	37.5	37.5	63	26.1	3	7	270	0.00	30.120 
12:05	37.8	34.8	37.8	61	25.6	4	10	270	0.00	30.120 
12:10	37.8	34.8	37.8	61	25.6	4	7	270	0.00	30.120 
12:15	37.9	34.9	37.9	61	25.7	4	13	248	0.00	30.123 
12:20	37.9	34.9	37.9	59	24.9	4	7	270	0.00	30.123 
12:25	38.0	38.0	38.0	58	24.6	3	6	270	0.00	30.123 
12:30	38.2	35.2	38.2	59	25.2	4	6	270	0.00	30.123 
12:35	38.0	38.0	38.0	56	23.7	3	6	315	0.00	30.123 
12:40	37.9	37.9	37.9	57	24.0	3	7	270	0.00	30.123 
12:45	38.2	38.2	38.2	60	25.6	3	6	270	0.00	30.122 
12:50	38.2	35.2	38.2	60	25.6	4	9	248	0.00	30.122 
12:55	38.3	35.4	38.3	59	25.2	4	7	248	0.00	30.122 
13:00	38.8	35.9	38.8	57	24.9	4	9	270	0.00	30.123 
13:05	38.8	38.8	38.8	58	25.3	3	9	270	0.00	30.123 
13:10	38.8	35.9	38.8	58	25.3	4	6	270	0.00	30.123 
13:15	38.9	38.9	38.9	60	26.2	3	5	248	0.00	30.128 
13:20	39.2	39.2	39.2	60	26.5	3	6	248	0.00	30.128 
13:25	39.5	39.5	39.5	58	26.0	3	5	292	0.00	30.128 
13:30	39.5	39.5	39.5	57	25.5	2	4	248	0.00	30.133 
13:35	39.2	39.2	39.2	58	25.7	3	5	270	0.00	30.133 
13:40	39.3	39.3	39.3	58	25.8	3	5	270	0.00	30.133 
13:45	39.3	39.3	39.3	58	25.8	3	5	270	0.00	30.140 
13:50	39.3	39.3	39.3	57	25.4	3	11	270	0.00	30.140 
13:55	38.9	36.0	38.9	56	24.6	4	11	270	0.00	30.140 
14:00	38.8	38.8	38.8	58	25.3	3	5	270	0.00	30.147 
14:05	38.8	35.9	38.8	56	24.5	4	10	270	0.00	30.147 
14:10	38.8	38.8	38.8	57	24.9	3	10	270	0.00	30.147 
14:15	38.9	38.9	38.9	56	24.6	3	7	270	0.00	30.147 
14:20	38.9	36.0	38.9	55	24.1	4	10	270	0.00	30.147 
14:25	38.8	38.8	38.8	56	24.5	3	6	248	0.00	30.147 
14:30	38.9	38.9	38.9	56	24.6	3	6	270	0.00	30.147 
14:35	39.1	39.1	39.1	56	24.7	3	7	248	0.00	30.147 
14:40	38.9	38.9	38.9	55	24.1	3	5	270	0.00	30.147 
14:45	38.8	38.8	38.8	54	23.6	3	6	270	0.00	30.152 
14:50	38.5	38.5	38.5	54	23.3	3	6	270	0.00	30.152 
14:55	38.5	35.6	38.5	54	23.3	4	7	270	0.00	30.152 
15:00	38.3	35.4	38.3	54	23.1	4	7	270	0.00	30.155 
15:05	38.5	38.5	38.5	55	23.8	2	4	270	0.00	30.155 
15:10	38.9	38.9	38.9	54	23.7	3	5	248	0.00	30.155 
15:15	38.6	35.7	38.6	53	23.0	4	7	270	0.00	30.162 
15:20	38.5	38.5	38.5	53	22.9	3	5	270	0.00	30.162 
15:25	38.2	38.2	38.2	55	23.5	3	7	270	0.00	30.162 
15:30	38.3	38.3	38.3	55	23.6	2	5	248	0.00	30.171 
15:35	38.3	38.3	38.3	54	23.1	3	7	270	0.00	30.171 
15:40	37.8	37.8	37.8	54	22.7	3	6	270	0.00	30.171 
15:45	37.8	37.8	37.8	55	23.1	2	5	270	0.00	30.177 
15:50	37.6	37.6	37.6	54	22.5	3	6	315	0.00	30.177 
15:55	37.3	37.3	37.3	55	22.6	3	7	270	0.00	30.177 
16:00	37.3	37.3	37.3	55	22.6	3	7	248	0.00	30.188 
16:05	37.2	34.1	37.2	55	22.5	4	7	270	0.00	30.188 
16:10	37.0	37.0	37.0	55	22.4	3	6	270	0.00	30.188 
16:15	36.9	36.9	36.9	55	22.3	2	5	270	0.00	30.195 
16:20	36.9	36.9	36.9	56	22.7	3	6	270	0.00	30.195 
16:25	36.8	36.8	36.8	56	22.6	2	7	270	0.00	30.195 
16:30	36.8	36.8	36.8	57	23.0	2	5	270	0.00	30.198 
16:35	36.6	36.6	36.6	57	22.8	2	4	248	0.00	30.198 
16:40	36.3	36.3	36.3	58	23.0	2	4	270	0.00	30.198 
16:45	36.2	36.2	36.2	58	22.9	2	4	292	0.00	30.204 
16:50	36.0	36.0	36.0	57	22.3	3	7	270	0.00	30.204 
16:55	35.9	35.9	35.9	58	22.6	2	5	315	0.00	30.204 
17:00	35.8	35.8	35.8	58	22.5	2	4	248	0.00	30.212 
17:05	35.6	35.6	35.6	58	22.3	1	4	248	0.00	30.212 
17:10	35.5	35.5	35.5	59	22.6	1	3	248	0.00	30.212 
17:15	35.3	35.3	35.3	59	22.4	2	4	248	0.00	30.227 
17:20	35.2	35.2	35.2	59	22.3	2	5	248	0.00	30.227 
17:25	35.0	35.0	35.0	59	22.1	2	4	248	0.00	30.227 
17:30	34.9	34.9	34.9	58	21.6	2	6	270	0.00	30.234 
17:35	34.7	34.7	34.7	58	21.5	2	4	248	0.00	30.234 
17:40	34.6	34.6	34.6	59	21.8	1	2	248	0.00	30.234 
17:45	34.4	34.4	34.4	59	21.6	2	4	248	0.00	30.244 
17:50	34.3	34.3	34.3	60	21.9	0	2	248	0.00	30.244 
17:55	34.1	34.1	34.1	60	21.7	0	3	338	0.00	30.244 
18:00	33.8	33.8	33.8	61	21.8	1	3	338	0.00	30.249 
18:05	33.8	33.8	33.8	61	21.8	2	4	292	0.00	30.249 
18:10	33.7	33.7	33.7	61	21.7	1	3	292	0.00	30.249 
18:15	33.5	33.5	33.5	61	21.5	0	2	292	0.00	30.262 
18:20	33.4	33.4	33.4	62	21.8	1	4	292	0.00	30.262 
18:25	33.2	33.2	33.2	62	21.6	1	3	292	0.00	30.262 
18:30	33.1	33.1	33.1	62	21.5	1	3	292	0.00	30.270 
18:35	32.9	32.9	32.9	62	21.3	1	3	270	0.00	30.270 
18:40	32.8	32.8	32.8	62	21.2	1	4	338	0.00	30.270 
18:45	32.7	32.7	32.7	62	21.1	0	2	248	0.00	30.283 
18:50	32.5	32.5	32.5	63	21.3	1	3	248	0.00	30.283 
18:55	32.4	32.4	32.4	63	21.2	1	2	338	0.00	30.283 
19:00	32.2	32.2	32.2	63	21.0	0	2	338	0.00	30.288 
19:05	32.1	32.1	32.1	63	20.9	0	2	338	0.00	30.288 
19:10	31.9	31.9	31.9	64	21.1	0	2	338	0.00	30.288 
19:15	31.8	31.8	31.8	64	21.0	0	2	338	0.00	30.299 
19:20	31.6	31.6	31.6	65	21.2	0	3	315	0.00	30.299 
19:25	31.6	31.6	31.6	64	20.8	0	2	315	0.00	30.299 
19:30	31.5	31.5	31.5	64	20.7	1	3	315	0.00	30.302 
19:35	31.5	31.5	31.5	65	21.1	0	2	338	0.00	30.302 
19:40	31.3	31.3	31.3	65	20.9	0	2	338	0.00	30.302 
19:45	31.2	31.2	31.2	65	20.8	0	2	338	0.00	30.305 
19:50	31.2	31.2	31.2	65	20.8	0	2	338	0.00	30.305 
19:55	31.0	31.0	31.0	65	20.6	0	2	338	0.00	30.305 
20:00	30.9	30.9	30.9	66	20.9	0	0	---	0.00	30.312 
20:05	30.6	30.6	30.6	66	20.6	0	0	---	0.00	30.312 
20:10	30.4	30.4	30.4	66	20.4	0	0	---	0.00	30.312 
20:15	30.1	30.1	30.1	67	20.5	0	0	---	0.00	30.322 
20:20	30.0	30.0	30.0	67	20.4	0	0	---	0.00	30.322 
20:25	29.7	29.7	29.7	68	20.5	0	0	---	0.00	30.322 
20:30	29.4	29.4	29.4	68	20.2	0	0	---	0.00	30.326 
20:35	29.1	29.1	29.1	69	20.2	0	0	---	0.00	30.326 
20:40	28.8	28.8	28.8	71	20.6	0	0	---	0.00	30.326 
20:45	28.5	28.5	28.5	71	20.3	0	0	---	0.00	30.324 
20:50	28.2	28.2	28.2	72	20.4	0	0	---	0.00	30.324 
20:55	28.1	28.1	28.1	72	20.3	0	0	---	0.00	30.324 
21:00	27.8	27.8	27.8	73	20.3	0	0	---	0.00	30.328 
21:05	27.5	27.5	27.5	74	20.3	0	0	---	0.00	30.328 
21:10	27.3	27.3	27.3	75	20.4	0	0	---	0.00	30.328 
21:15	27.0	27.0	27.0	75	20.2	0	0	---	0.00	30.337 
21:20	26.9	26.9	26.9	75	20.1	0	0	---	0.00	30.337 
21:25	26.7	26.7	26.7	76	20.2	0	0	---	0.00	30.337 
21:30	26.6	26.6	26.6	77	20.4	0	0	---	0.00	30.338 
21:35	26.4	26.4	26.4	77	20.2	0	0	---	0.00	30.338 
21:40	26.3	26.3	26.3	77	20.1	0	0	---	0.00	30.338 
21:45	26.1	26.1	26.1	78	20.2	0	0	---	0.00	30.339 
21:50	26.1	26.1	26.1	78	20.2	0	0	---	0.00	30.339 
21:55	26.0	26.0	26.0	78	20.1	0	0	---	0.00	30.339 
22:00	25.7	25.7	25.7	79	20.1	0	0	---	0.00	30.340 
22:05	25.6	25.6	25.6	79	20.0	0	0	---	0.00	30.340 
22:10	25.4	25.4	25.4	80	20.1	0	0	---	0.00	30.340 
22:15	25.4	25.4	25.4	80	20.1	0	0	---	0.00	30.340 
22:20	25.3	25.3	25.3	81	20.3	0	0	---	0.00	30.340 
22:25	25.1	25.1	25.1	81	20.1	0	0	---	0.00	30.340 
22:30	25.1	25.1	25.1	81	20.1	0	0	---	0.00	30.341 
22:35	25.0	25.0	25.0	82	20.3	0	0	---	0.00	30.341 
22:40	24.8	24.8	24.8	83	20.4	0	0	---	0.00	30.341 
22:45	24.8	24.8	24.8	83	20.4	0	0	---	0.00	30.342 
22:50	24.7	24.7	24.7	83	20.3	0	0	---	0.00	30.342 
22:55	24.5	24.5	24.5	83	20.1	0	0	---	0.00	30.342 
23:00	24.4	24.4	24.4	84	20.3	0	0	---	0.00	30.355 
23:05	24.2	24.2	24.2	84	20.1	0	0	---	0.00	30.355 
23:10	24.2	24.2	24.2	84	20.1	0	0	---	0.00	30.355 
23:15	24.1	24.1	24.1	84	20.0	0	0	---	0.00	30.348 
23:20	24.1	24.1	24.1	84	20.0	0	0	---	0.00	30.348 
23:25	23.9	23.9	23.9	84	19.8	0	0	---	0.00	30.348 
23:30	23.8	23.8	23.8	84	19.7	0	0	---	0.00	30.346 
23:35	23.6	23.6	23.6	84	19.5	0	0	---	0.00	30.346 
23:40	23.5	23.5	23.5	85	19.7	0	0	---	0.00	30.346 
23:45	23.3	23.3	23.3	85	19.5	0	0	---	0.00	30.345 
23:50	23.2	23.2	23.2	85	19.4	0	0	---	0.00	30.345 
23:55	23.2	23.2	23.2	85	19.4	0	0	---	0.00	30.345 

CoCoRaHS
IN-AL-39
A2 Web Hosting
Creative Commons License
GoDaddy
search engine by freefind advanced

loaded 2018-11-17 05:35:09 • last modified 2010-11-18 10:43:29
Privacy PolicyDisclaimer
• wx.awcolley.com is powered by PmWiki v.2002016 •
• all content (unless otherwise noted) © 2018 A W Colley